sensor_id;sensor_type;location;lat;lon;timestamp;temperature;humidity
75824;DHT22;64457;51.976;9.834;2022-11-15T00:01:57;12.10;99.90
75824;DHT22;64457;51.976;9.834;2022-11-15T00:04:25;12.20;99.90
75824;DHT22;64457;51.976;9.834;2022-11-15T00:06:52;12.10;99.90
75824;DHT22;64457;51.976;9.834;2022-11-15T00:09:20;12.20;99.90
75824;DHT22;64457;51.976;9.834;2022-11-15T00:11:47;12.20;99.90
75824;DHT22;64457;51.976;9.834;2022-11-15T00:14:15;12.20;99.90
75824;DHT22;64457;51.976;9.834;2022-11-15T00:16:43;12.40;99.90
75824;DHT22;64457;51.976;9.834;2022-11-15T00:19:12;12.50;99.90
75824;DHT22;64457;51.976;9.834;2022-11-15T00:21:40;12.70;99.90
75824;DHT22;64457;51.976;9.834;2022-11-15T00:24:08;12.70;99.90
75824;DHT22;64457;51.976;9.834;2022-11-15T00:26:36;12.70;99.90
75824;DHT22;64457;51.976;9.834;2022-11-15T00:29:03;12.50;99.90
75824;DHT22;64457;51.976;9.834;2022-11-15T00:31:31;12.60;99.90
75824;DHT22;64457;51.976;9.834;2022-11-15T00:33:58;12.70;99.90
75824;DHT22;64457;51.976;9.834;2022-11-15T00:36:29;12.70;99.90
75824;DHT22;64457;51.976;9.834;2022-11-15T00:39:00;12.80;99.90
75824;DHT22;64457;51.976;9.834;2022-11-15T00:41:27;12.80;99.90
75824;DHT22;64457;51.976;9.834;2022-11-15T00:43:55;12.90;99.90
75824;DHT22;64457;51.976;9.834;2022-11-15T00:46:23;13.00;99.90
75824;DHT22;64457;51.976;9.834;2022-11-15T00:48:52;13.10;99.90
75824;DHT22;64457;51.976;9.834;2022-11-15T00:51:20;12.90;99.90
75824;DHT22;64457;51.976;9.834;2022-11-15T00:53:51;13.10;99.90
75824;DHT22;64457;51.976;9.834;2022-11-15T00:56:19;13.00;99.90
75824;DHT22;64457;51.976;9.834;2022-11-15T00:58:46;13.00;99.90
75824;DHT22;64457;51.976;9.834;2022-11-15T01:01:14;13.00;99.90
75824;DHT22;64457;51.976;9.834;2022-11-15T01:03:42;12.80;99.90
75824;DHT22;64457;51.976;9.834;2022-11-15T01:06:09;12.80;99.90
75824;DHT22;64457;51.976;9.834;2022-11-15T01:08:39;12.80;99.90
75824;DHT22;64457;51.976;9.834;2022-11-15T01:11:10;12.60;99.90
75824;DHT22;64457;51.976;9.834;2022-11-15T01:13:39;12.70;99.90
75824;DHT22;64457;51.976;9.834;2022-11-15T01:16:09;12.90;99.90
75824;DHT22;64457;51.976;9.834;2022-11-15T01:18:38;12.60;99.90
75824;DHT22;64457;51.976;9.834;2022-11-15T01:21:09;12.70;99.90
75824;DHT22;64457;51.976;9.834;2022-11-15T01:23:38;13.00;99.90
75824;DHT22;64457;51.976;9.834;2022-11-15T01:26:10;12.80;99.90
75824;DHT22;64457;51.976;9.834;2022-11-15T01:28:41;12.60;99.90
75824;DHT22;64457;51.976;9.834;2022-11-15T01:31:12;12.80;99.90
75824;DHT22;64457;51.976;9.834;2022-11-15T01:33:41;12.80;99.90
75824;DHT22;64457;51.976;9.834;2022-11-15T01:36:11;12.90;99.90
75824;DHT22;64457;51.976;9.834;2022-11-15T01:38:41;12.80;99.90
75824;DHT22;64457;51.976;9.834;2022-11-15T01:41:15;13.10;99.90
75824;DHT22;64457;51.976;9.834;2022-11-15T01:43:46;13.20;99.90
75824;DHT22;64457;51.976;9.834;2022-11-15T01:46:29;13.20;99.90
75824;DHT22;64457;51.976;9.834;2022-11-15T01:49:02;13.30;99.90
75824;DHT22;64457;51.976;9.834;2022-11-15T01:51:33;13.50;99.90
75824;DHT22;64457;51.976;9.834;2022-11-15T01:54:03;13.40;99.90
75824;DHT22;64457;51.976;9.834;2022-11-15T01:56:44;13.30;99.90
75824;DHT22;64457;51.976;9.834;2022-11-15T01:59:14;13.40;99.90
75824;DHT22;64457;51.976;9.834;2022-11-15T02:01:42;13.30;99.90
75824;DHT22;64457;51.976;9.834;2022-11-15T02:04:14;13.40;99.90
75824;DHT22;64457;51.976;9.834;2022-11-15T02:06:44;13.60;99.90
75824;DHT22;64457;51.976;9.834;2022-11-15T02:09:13;13.60;99.90
75824;DHT22;64457;51.976;9.834;2022-11-15T02:11:43;13.70;99.90
75824;DHT22;64457;51.976;9.834;2022-11-15T02:14:11;13.90;99.90
75824;DHT22;64457;51.976;9.834;2022-11-15T02:16:49;13.70;99.90
75824;DHT22;64457;51.976;9.834;2022-11-15T02:19:36;13.70;99.90
75824;DHT22;64457;51.976;9.834;2022-11-15T02:22:22;13.80;99.90
75824;DHT22;64457;51.976;9.834;2022-11-15T02:25:03;13.90;99.90
75824;DHT22;64457;51.976;9.834;2022-11-15T02:28:19;13.90;99.90
75824;DHT22;64457;51.976;9.834;2022-11-15T02:31:14;13.60;99.90
75824;DHT22;64457;51.976;9.834;2022-11-15T02:33:53;13.50;99.90
75824;DHT22;64457;51.976;9.834;2022-11-15T02:36:31;13.50;99.90
75824;DHT22;64457;51.976;9.834;2022-11-15T02:39:06;13.50;99.90
75824;DHT22;64457;51.976;9.834;2022-11-15T02:41:41;13.50;99.90
75824;DHT22;64457;51.976;9.834;2022-11-15T02:44:16;13.50;99.90
75824;DHT22;64457;51.976;9.834;2022-11-15T02:46:50;13.30;99.90
75824;DHT22;64457;51.976;9.834;2022-11-15T02:49:37;13.30;99.90
75824;DHT22;64457;51.976;9.834;2022-11-15T02:52:07;12.90;99.90
75824;DHT22;64457;51.976;9.834;2022-11-15T02:54:36;12.80;99.90
75824;DHT22;64457;51.976;9.834;2022-11-15T02:57:06;12.90;99.90
75824;DHT22;64457;51.976;9.834;2022-11-15T02:59:48;13.10;99.90
75824;DHT22;64457;51.976;9.834;2022-11-15T03:02:40;13.20;99.90
75824;DHT22;64457;51.976;9.834;2022-11-15T03:05:19;13.30;99.90
75824;DHT22;64457;51.976;9.834;2022-11-15T03:07:56;13.10;99.90
75824;DHT22;64457;51.976;9.834;2022-11-15T03:10:36;13.10;99.90
75824;DHT22;64457;51.976;9.834;2022-11-15T03:13:19;13.00;99.90
75824;DHT22;64457;51.976;9.834;2022-11-15T03:15:56;13.00;99.90
75824;DHT22;64457;51.976;9.834;2022-11-15T03:18:33;12.90;99.90
75824;DHT22;64457;51.976;9.834;2022-11-15T03:21:06;12.70;99.90
75824;DHT22;64457;51.976;9.834;2022-11-15T03:23:37;12.90;99.90
75824;DHT22;64457;51.976;9.834;2022-11-15T03:26:08;12.80;99.90
75824;DHT22;64457;51.976;9.834;2022-11-15T03:28:41;12.80;99.90
75824;DHT22;64457;51.976;9.834;2022-11-15T03:31:12;12.80;99.90
75824;DHT22;64457;51.976;9.834;2022-11-15T03:34:02;12.60;99.90
75824;DHT22;64457;51.976;9.834;2022-11-15T03:36:33;12.60;99.90
75824;DHT22;64457;51.976;9.834;2022-11-15T03:39:05;12.60;99.90
75824;DHT22;64457;51.976;9.834;2022-11-15T03:41:38;12.50;99.90
75824;DHT22;64457;51.976;9.834;2022-11-15T03:44:15;12.40;99.90
75824;DHT22;64457;51.976;9.834;2022-11-15T03:46:55;12.60;99.90
75824;DHT22;64457;51.976;9.834;2022-11-15T03:49:29;12.70;99.90
75824;DHT22;64457;51.976;9.834;2022-11-15T03:52:00;12.80;99.90
75824;DHT22;64457;51.976;9.834;2022-11-15T03:54:29;12.60;99.90
75824;DHT22;64457;51.976;9.834;2022-11-15T03:56:59;12.40;99.90
75824;DHT22;64457;51.976;9.834;2022-11-15T03:59:26;12.50;99.90
75824;DHT22;64457;51.976;9.834;2022-11-15T04:01:54;12.50;99.90
75824;DHT22;64457;51.976;9.834;2022-11-15T04:04:21;12.60;99.90
75824;DHT22;64457;51.976;9.834;2022-11-15T04:06:50;12.60;99.90
75824;DHT22;64457;51.976;9.834;2022-11-15T04:09:18;12.70;99.90
75824;DHT22;64457;51.976;9.834;2022-11-15T04:11:46;12.70;99.90
75824;DHT22;64457;51.976;9.834;2022-11-15T04:14:14;12.50;99.90
75824;DHT22;64457;51.976;9.834;2022-11-15T04:16:42;12.50;99.90
75824;DHT22;64457;51.976;9.834;2022-11-15T04:19:10;12.50;99.90
75824;DHT22;64457;51.976;9.834;2022-11-15T04:21:56;12.60;99.90
75824;DHT22;64457;51.976;9.834;2022-11-15T04:24:49;12.50;99.90
75824;DHT22;64457;51.976;9.834;2022-11-15T04:27:16;12.70;99.90
75824;DHT22;64457;51.976;9.834;2022-11-15T04:29:44;12.70;99.90
75824;DHT22;64457;51.976;9.834;2022-11-15T04:32:12;12.60;99.90
75824;DHT22;64457;51.976;9.834;2022-11-15T04:34:40;12.50;99.90
75824;DHT22;64457;51.976;9.834;2022-11-15T04:37:10;12.60;99.90
75824;DHT22;64457;51.976;9.834;2022-11-15T04:39:39;12.60;99.90
75824;DHT22;64457;51.976;9.834;2022-11-15T04:42:07;12.40;99.90
75824;DHT22;64457;51.976;9.834;2022-11-15T04:44:36;12.40;99.90
75824;DHT22;64457;51.976;9.834;2022-11-15T04:47:04;12.40;99.90
75824;DHT22;64457;51.976;9.834;2022-11-15T04:49:33;12.50;99.90
75824;DHT22;64457;51.976;9.834;2022-11-15T04:52:00;12.60;99.90
75824;DHT22;64457;51.976;9.834;2022-11-15T04:54:30;12.50;99.90
75824;DHT22;64457;51.976;9.834;2022-11-15T04:56:58;12.70;99.90
75824;DHT22;64457;51.976;9.834;2022-11-15T04:59:27;12.60;99.90
75824;DHT22;64457;51.976;9.834;2022-11-15T05:01:54;12.80;99.90
75824;DHT22;64457;51.976;9.834;2022-11-15T05:04:22;12.70;99.90
75824;DHT22;64457;51.976;9.834;2022-11-15T05:06:51;12.80;99.90
75824;DHT22;64457;51.976;9.834;2022-11-15T05:09:19;12.70;99.90
75824;DHT22;64457;51.976;9.834;2022-11-15T05:11:50;12.70;99.90
75824;DHT22;64457;51.976;9.834;2022-11-15T05:14:17;12.70;99.90
75824;DHT22;64457;51.976;9.834;2022-11-15T05:16:45;12.60;99.90
75824;DHT22;64457;51.976;9.834;2022-11-15T05:19:13;12.50;99.90
75824;DHT22;64457;51.976;9.834;2022-11-15T05:21:41;12.30;99.90
75824;DHT22;64457;51.976;9.834;2022-11-15T05:24:10;11.90;99.90
75824;DHT22;64457;51.976;9.834;2022-11-15T05:26:38;11.70;99.90
75824;DHT22;64457;51.976;9.834;2022-11-15T05:29:09;11.50;99.90
75824;DHT22;64457;51.976;9.834;2022-11-15T05:31:39;11.40;99.90
75824;DHT22;64457;51.976;9.834;2022-11-15T05:34:08;11.50;99.90
75824;DHT22;64457;51.976;9.834;2022-11-15T05:36:37;11.60;99.90
75824;DHT22;64457;51.976;9.834;2022-11-15T05:39:07;11.70;99.90
75824;DHT22;64457;51.976;9.834;2022-11-15T05:41:38;11.60;99.90
75824;DHT22;64457;51.976;9.834;2022-11-15T05:44:11;11.80;99.90
75824;DHT22;64457;51.976;9.834;2022-11-15T05:46:40;11.80;99.90
75824;DHT22;64457;51.976;9.834;2022-11-15T05:49:12;11.80;99.90
75824;DHT22;64457;51.976;9.834;2022-11-15T05:51:45;11.60;99.90
75824;DHT22;64457;51.976;9.834;2022-11-15T05:54:14;11.30;99.90
75824;DHT22;64457;51.976;9.834;2022-11-15T05:56:43;11.40;99.90
75824;DHT22;64457;51.976;9.834;2022-11-15T05:59:13;11.60;99.90
75824;DHT22;64457;51.976;9.834;2022-11-15T06:01:41;11.60;99.90
75824;DHT22;64457;51.976;9.834;2022-11-15T06:04:10;11.40;99.90
75824;DHT22;64457;51.976;9.834;2022-11-15T06:06:39;11.10;99.90
75824;DHT22;64457;51.976;9.834;2022-11-15T06:09:07;11.40;99.90
75824;DHT22;64457;51.976;9.834;2022-11-15T06:11:35;11.30;99.90
75824;DHT22;64457;51.976;9.834;2022-11-15T06:14:03;11.30;99.90
75824;DHT22;64457;51.976;9.834;2022-11-15T06:16:32;11.20;99.90
75824;DHT22;64457;51.976;9.834;2022-11-15T06:19:00;11.20;99.90
75824;DHT22;64457;51.976;9.834;2022-11-15T06:21:28;11.50;99.90
75824;DHT22;64457;51.976;9.834;2022-11-15T06:23:55;11.70;99.90
75824;DHT22;64457;51.976;9.834;2022-11-15T06:26:23;11.90;99.90
75824;DHT22;64457;51.976;9.834;2022-11-15T06:28:51;12.00;99.90
75824;DHT22;64457;51.976;9.834;2022-11-15T06:31:19;11.90;99.90
75824;DHT22;64457;51.976;9.834;2022-11-15T06:33:48;11.60;99.90
75824;DHT22;64457;51.976;9.834;2022-11-15T06:36:17;11.70;99.90
75824;DHT22;64457;51.976;9.834;2022-11-15T06:38:45;11.80;99.90
75824;DHT22;64457;51.976;9.834;2022-11-15T06:41:13;12.00;99.90
75824;DHT22;64457;51.976;9.834;2022-11-15T06:43:42;12.10;99.90
75824;DHT22;64457;51.976;9.834;2022-11-15T06:46:10;12.10;99.90
75824;DHT22;64457;51.976;9.834;2022-11-15T06:48:38;12.10;99.90
75824;DHT22;64457;51.976;9.834;2022-11-15T06:51:07;12.10;99.90
75824;DHT22;64457;51.976;9.834;2022-11-15T06:53:35;12.20;99.90
75824;DHT22;64457;51.976;9.834;2022-11-15T06:56:04;12.30;99.90
75824;DHT22;64457;51.976;9.834;2022-11-15T06:58:33;12.30;99.90
75824;DHT22;64457;51.976;9.834;2022-11-15T07:01:03;12.30;99.90
75824;DHT22;64457;51.976;9.834;2022-11-15T07:03:34;12.20;99.90
75824;DHT22;64457;51.976;9.834;2022-11-15T07:06:02;12.00;99.90
75824;DHT22;64457;51.976;9.834;2022-11-15T07:08:31;11.90;99.90
75824;DHT22;64457;51.976;9.834;2022-11-15T07:11:00;12.00;99.90
75824;DHT22;64457;51.976;9.834;2022-11-15T07:13:30;12.10;99.90
75824;DHT22;64457;51.976;9.834;2022-11-15T07:16:02;11.90;99.90
75824;DHT22;64457;51.976;9.834;2022-11-15T07:18:30;12.00;99.90
75824;DHT22;64457;51.976;9.834;2022-11-15T07:21:01;12.00;99.90
75824;DHT22;64457;51.976;9.834;2022-11-15T07:23:31;12.00;99.90
75824;DHT22;64457;51.976;9.834;2022-11-15T07:25:59;12.10;99.90
75824;DHT22;64457;51.976;9.834;2022-11-15T07:28:27;12.20;99.90
75824;DHT22;64457;51.976;9.834;2022-11-15T07:30:55;12.50;99.90
75824;DHT22;64457;51.976;9.834;2022-11-15T07:33:24;12.60;99.90
75824;DHT22;64457;51.976;9.834;2022-11-15T07:35:52;12.30;99.90
75824;DHT22;64457;51.976;9.834;2022-11-15T07:38:20;12.50;99.90
75824;DHT22;64457;51.976;9.834;2022-11-15T07:40:56;12.60;99.90
75824;DHT22;64457;51.976;9.834;2022-11-15T07:43:24;12.80;99.90
75824;DHT22;64457;51.976;9.834;2022-11-15T07:45:53;12.80;99.90
75824;DHT22;64457;51.976;9.834;2022-11-15T07:48:22;12.80;99.90
75824;DHT22;64457;51.976;9.834;2022-11-15T07:50:51;12.90;99.90
75824;DHT22;64457;51.976;9.834;2022-11-15T07:53:18;12.80;99.90
75824;DHT22;64457;51.976;9.834;2022-11-15T07:55:49;12.70;99.90
75824;DHT22;64457;51.976;9.834;2022-11-15T07:58:19;12.80;99.90
75824;DHT22;64457;51.976;9.834;2022-11-15T08:00:47;12.50;99.90
75824;DHT22;64457;51.976;9.834;2022-11-15T08:03:15;12.40;99.90
75824;DHT22;64457;51.976;9.834;2022-11-15T08:05:50;12.10;99.90
75824;DHT22;64457;51.976;9.834;2022-11-15T08:08:18;12.10;99.90
75824;DHT22;64457;51.976;9.834;2022-11-15T08:10:49;12.20;99.90
75824;DHT22;64457;51.976;9.834;2022-11-15T08:13:16;12.10;99.90
75824;DHT22;64457;51.976;9.834;2022-11-15T08:15:44;12.20;99.90
75824;DHT22;64457;51.976;9.834;2022-11-15T08:18:14;12.10;99.90
75824;DHT22;64457;51.976;9.834;2022-11-15T08:20:44;12.20;99.90
75824;DHT22;64457;51.976;9.834;2022-11-15T08:23:12;12.30;99.90
75824;DHT22;64457;51.976;9.834;2022-11-15T08:25:40;12.50;99.90
75824;DHT22;64457;51.976;9.834;2022-11-15T08:28:10;12.60;99.90
75824;DHT22;64457;51.976;9.834;2022-11-15T08:30:39;12.80;99.90
75824;DHT22;64457;51.976;9.834;2022-11-15T08:33:11;12.70;99.90
75824;DHT22;64457;51.976;9.834;2022-11-15T08:35:39;12.60;99.90
75824;DHT22;64457;51.976;9.834;2022-11-15T08:38:07;12.80;99.90
75824;DHT22;64457;51.976;9.834;2022-11-15T08:40:35;12.90;99.90
75824;DHT22;64457;51.976;9.834;2022-11-15T08:43:03;12.80;99.90
75824;DHT22;64457;51.976;9.834;2022-11-15T08:45:34;12.90;99.90
75824;DHT22;64457;51.976;9.834;2022-11-15T08:48:03;12.60;99.90
75824;DHT22;64457;51.976;9.834;2022-11-15T08:50:32;12.90;99.90
75824;DHT22;64457;51.976;9.834;2022-11-15T08:53:05;13.10;99.90
75824;DHT22;64457;51.976;9.834;2022-11-15T08:55:32;13.00;99.90
75824;DHT22;64457;51.976;9.834;2022-11-15T08:58:03;12.70;99.90
75824;DHT22;64457;51.976;9.834;2022-11-15T09:00:30;12.90;99.90
75824;DHT22;64457;51.976;9.834;2022-11-15T09:03:03;13.10;99.90
75824;DHT22;64457;51.976;9.834;2022-11-15T09:05:31;13.30;99.90
75824;DHT22;64457;51.976;9.834;2022-11-15T09:07:59;13.10;99.90
75824;DHT22;64457;51.976;9.834;2022-11-15T09:10:27;13.00;99.90
75824;DHT22;64457;51.976;9.834;2022-11-15T09:12:56;13.00;99.90
75824;DHT22;64457;51.976;9.834;2022-11-15T09:15:24;13.00;99.90
75824;DHT22;64457;51.976;9.834;2022-11-15T09:17:52;13.30;99.90
75824;DHT22;64457;51.976;9.834;2022-11-15T09:20:21;13.60;99.90
75824;DHT22;64457;51.976;9.834;2022-11-15T09:22:49;13.80;99.90
75824;DHT22;64457;51.976;9.834;2022-11-15T09:25:17;14.10;99.90
75824;DHT22;64457;51.976;9.834;2022-11-15T09:27:44;14.00;99.90
75824;DHT22;64457;51.976;9.834;2022-11-15T09:30:13;14.00;99.90
75824;DHT22;64457;51.976;9.834;2022-11-15T09:32:40;14.10;99.90
75824;DHT22;64457;51.976;9.834;2022-11-15T09:35:08;14.20;99.90
75824;DHT22;64457;51.976;9.834;2022-11-15T09:37:38;13.70;99.90
75824;DHT22;64457;51.976;9.834;2022-11-15T09:40:09;13.90;99.90
75824;DHT22;64457;51.976;9.834;2022-11-15T09:42:51;14.00;99.90
75824;DHT22;64457;51.976;9.834;2022-11-15T09:45:31;14.10;99.90
75824;DHT22;64457;51.976;9.834;2022-11-15T09:51:23;13.90;99.90
75824;DHT22;64457;51.976;9.834;2022-11-15T09:54:00;14.20;99.90
75824;DHT22;64457;51.976;9.834;2022-11-15T09:56:35;14.30;99.90
75824;DHT22;64457;51.976;9.834;2022-11-15T10:02:33;14.00;99.90
75824;DHT22;64457;51.976;9.834;2022-11-15T10:05:12;14.50;99.90
75824;DHT22;64457;51.976;9.834;2022-11-15T10:07:48;14.70;99.90
75824;DHT22;64457;51.976;9.834;2022-11-15T10:10:38;14.60;99.90
75824;DHT22;64457;51.976;9.834;2022-11-15T10:13:12;14.40;99.90
75824;DHT22;64457;51.976;9.834;2022-11-15T10:15:42;14.60;99.90
75824;DHT22;64457;51.976;9.834;2022-11-15T10:18:17;14.90;99.90
75824;DHT22;64457;51.976;9.834;2022-11-15T10:20:50;14.90;99.90
75824;DHT22;64457;51.976;9.834;2022-11-15T10:23:22;15.00;99.90
75824;DHT22;64457;51.976;9.834;2022-11-15T10:25:54;15.00;99.90
75824;DHT22;64457;51.976;9.834;2022-11-15T10:28:26;14.90;99.90
75824;DHT22;64457;51.976;9.834;2022-11-15T10:30:56;14.70;99.90
75824;DHT22;64457;51.976;9.834;2022-11-15T10:33:27;14.50;99.90
75824;DHT22;64457;51.976;9.834;2022-11-15T10:36:17;14.60;99.90
75824;DHT22;64457;51.976;9.834;2022-11-15T10:39:10;14.60;99.90
75824;DHT22;64457;51.976;9.834;2022-11-15T10:41:41;14.60;99.90
75824;DHT22;64457;51.976;9.834;2022-11-15T10:44:24;14.80;99.90
75824;DHT22;64457;51.976;9.834;2022-11-15T10:47:27;14.40;99.90
75824;DHT22;64457;51.976;9.834;2022-11-15T10:49:59;14.40;99.90
75824;DHT22;64457;51.976;9.834;2022-11-15T10:52:31;14.60;99.90
75824;DHT22;64457;51.976;9.834;2022-11-15T10:55:05;14.90;99.90
75824;DHT22;64457;51.976;9.834;2022-11-15T10:57:53;15.20;99.90
75824;DHT22;64457;51.976;9.834;2022-11-15T11:00:32;15.40;99.90
75824;DHT22;64457;51.976;9.834;2022-11-15T11:03:03;15.10;99.90
75824;DHT22;64457;51.976;9.834;2022-11-15T11:05:34;15.40;99.90
75824;DHT22;64457;51.976;9.834;2022-11-15T11:08:05;15.50;99.70
75824;DHT22;64457;51.976;9.834;2022-11-15T11:10:53;15.20;99.90
75824;DHT22;64457;51.976;9.834;2022-11-15T11:13:24;15.60;99.90
75824;DHT22;64457;51.976;9.834;2022-11-15T11:15:58;15.20;99.90
75824;DHT22;64457;51.976;9.834;2022-11-15T11:18:41;15.40;99.90
75824;DHT22;64457;51.976;9.834;2022-11-15T11:21:18;15.80;99.90
75824;DHT22;64457;51.976;9.834;2022-11-15T11:23:53;15.30;99.40
75824;DHT22;64457;51.976;9.834;2022-11-15T11:26:42;15.30;99.90
75824;DHT22;64457;51.976;9.834;2022-11-15T11:29:25;14.90;99.90
75824;DHT22;64457;51.976;9.834;2022-11-15T11:32:05;15.00;99.90
75824;DHT22;64457;51.976;9.834;2022-11-15T11:34:50;15.20;99.90
75824;DHT22;64457;51.976;9.834;2022-11-15T11:37:30;15.10;99.90
75824;DHT22;64457;51.976;9.834;2022-11-15T11:40:13;15.20;99.90
75824;DHT22;64457;51.976;9.834;2022-11-15T11:42:54;15.20;99.90
75824;DHT22;64457;51.976;9.834;2022-11-15T11:45:50;15.00;99.90
75824;DHT22;64457;51.976;9.834;2022-11-15T11:48:40;15.40;99.90
75824;DHT22;64457;51.976;9.834;2022-11-15T11:51:15;15.50;99.90
75824;DHT22;64457;51.976;9.834;2022-11-15T11:53:50;15.60;99.90
75824;DHT22;64457;51.976;9.834;2022-11-15T11:56:26;15.60;99.70
75824;DHT22;64457;51.976;9.834;2022-11-15T11:59:00;15.80;99.90
75824;DHT22;64457;51.976;9.834;2022-11-15T12:01:34;16.00;99.60
75824;DHT22;64457;51.976;9.834;2022-11-15T12:04:11;16.20;99.30
75824;DHT22;64457;51.976;9.834;2022-11-15T12:06:46;16.10;98.90
75824;DHT22;64457;51.976;9.834;2022-11-15T12:09:21;15.80;99.60
75824;DHT22;64457;51.976;9.834;2022-11-15T12:12:00;16.10;99.60
75824;DHT22;64457;51.976;9.834;2022-11-15T12:14:36;15.70;99.40
75824;DHT22;64457;51.976;9.834;2022-11-15T12:17:10;15.60;99.90
75824;DHT22;64457;51.976;9.834;2022-11-15T12:19:38;15.60;99.30
75824;DHT22;64457;51.976;9.834;2022-11-15T12:22:10;15.20;99.90
75824;DHT22;64457;51.976;9.834;2022-11-15T12:24:43;15.00;99.90
75824;DHT22;64457;51.976;9.834;2022-11-15T12:27:17;15.00;99.90
75824;DHT22;64457;51.976;9.834;2022-11-15T12:29:49;15.60;99.90
75824;DHT22;64457;51.976;9.834;2022-11-15T12:32:26;15.80;99.90
75824;DHT22;64457;51.976;9.834;2022-11-15T12:34:56;16.00;99.30
75824;DHT22;64457;51.976;9.834;2022-11-15T12:37:47;16.10;99.40
75824;DHT22;64457;51.976;9.834;2022-11-15T12:40:19;15.90;99.60
75824;DHT22;64457;51.976;9.834;2022-11-15T12:43:04;16.10;99.40
75824;DHT22;64457;51.976;9.834;2022-11-15T12:45:48;16.30;98.80
75824;DHT22;64457;51.976;9.834;2022-11-15T12:55:06;15.70;98.90
75824;DHT22;64457;51.976;9.834;2022-11-15T13:01:08;15.30;99.90
75824;DHT22;64457;51.976;9.834;2022-11-15T13:04:11;15.80;99.90
75824;DHT22;64457;51.976;9.834;2022-11-15T13:06:42;15.80;98.90
75824;DHT22;64457;51.976;9.834;2022-11-15T13:09:51;16.00;99.60
75824;DHT22;64457;51.976;9.834;2022-11-15T13:12:55;16.10;99.00
75824;DHT22;64457;51.976;9.834;2022-11-15T13:15:51;15.50;98.90
75824;DHT22;64457;51.976;9.834;2022-11-15T13:18:43;15.20;99.90
75824;DHT22;64457;51.976;9.834;2022-11-15T13:21:31;15.20;99.90
75824;DHT22;64457;51.976;9.834;2022-11-15T13:24:17;15.20;99.90
75824;DHT22;64457;51.976;9.834;2022-11-15T13:26:53;15.10;99.90
75824;DHT22;64457;51.976;9.834;2022-11-15T13:29:22;15.10;99.90
75824;DHT22;64457;51.976;9.834;2022-11-15T13:31:49;14.60;99.90
75824;DHT22;64457;51.976;9.834;2022-11-15T13:34:26;14.70;99.90
75824;DHT22;64457;51.976;9.834;2022-11-15T13:36:57;14.90;99.90
75824;DHT22;64457;51.976;9.834;2022-11-15T13:39:29;15.00;99.90
75824;DHT22;64457;51.976;9.834;2022-11-15T13:41:58;14.50;99.90
75824;DHT22;64457;51.976;9.834;2022-11-15T13:44:27;14.50;99.90
75824;DHT22;64457;51.976;9.834;2022-11-15T13:47:26;14.80;99.90
75824;DHT22;64457;51.976;9.834;2022-11-15T13:49:57;15.00;99.90
75824;DHT22;64457;51.976;9.834;2022-11-15T13:52:30;15.00;99.90
75824;DHT22;64457;51.976;9.834;2022-11-15T13:55:02;15.00;99.90
75824;DHT22;64457;51.976;9.834;2022-11-15T13:57:39;15.10;99.90
75824;DHT22;64457;51.976;9.834;2022-11-15T14:00:26;15.10;99.90
75824;DHT22;64457;51.976;9.834;2022-11-15T14:03:07;15.40;99.90
75824;DHT22;64457;51.976;9.834;2022-11-15T14:06:07;15.40;99.90
75824;DHT22;64457;51.976;9.834;2022-11-15T14:08:39;15.30;99.90
75824;DHT22;64457;51.976;9.834;2022-11-15T14:11:14;15.70;99.70
75824;DHT22;64457;51.976;9.834;2022-11-15T14:14:03;16.10;99.50
75824;DHT22;64457;51.976;9.834;2022-11-15T14:16:41;16.40;99.40
75824;DHT22;64457;51.976;9.834;2022-11-15T14:19:11;16.50;98.70
75824;DHT22;64457;51.976;9.834;2022-11-15T14:22:09;16.30;99.30
75824;DHT22;64457;51.976;9.834;2022-11-15T14:25:05;16.30;99.10
75824;DHT22;64457;51.976;9.834;2022-11-15T14:27:41;16.40;98.90
75824;DHT22;64457;51.976;9.834;2022-11-15T14:30:13;15.90;98.70
75824;DHT22;64457;51.976;9.834;2022-11-15T14:32:44;15.60;99.00
75824;DHT22;64457;51.976;9.834;2022-11-15T14:35:17;15.70;99.30
75824;DHT22;64457;51.976;9.834;2022-11-15T14:37:46;15.50;99.50
75824;DHT22;64457;51.976;9.834;2022-11-15T14:40:17;15.20;99.70
75824;DHT22;64457;51.976;9.834;2022-11-15T14:42:47;14.70;99.90
75824;DHT22;64457;51.976;9.834;2022-11-15T14:45:19;14.60;99.90
75824;DHT22;64457;51.976;9.834;2022-11-15T14:47:48;14.80;99.90
75824;DHT22;64457;51.976;9.834;2022-11-15T14:50:19;14.80;99.90
75824;DHT22;64457;51.976;9.834;2022-11-15T14:52:48;14.70;99.90
75824;DHT22;64457;51.976;9.834;2022-11-15T14:55:20;14.90;99.90
75824;DHT22;64457;51.976;9.834;2022-11-15T14:57:49;14.90;99.80
75824;DHT22;64457;51.976;9.834;2022-11-15T15:00:19;14.90;99.90
75824;DHT22;64457;51.976;9.834;2022-11-15T15:02:48;15.00;99.90
75824;DHT22;64457;51.976;9.834;2022-11-15T15:05:18;15.00;99.90
75824;DHT22;64457;51.976;9.834;2022-11-15T15:07:47;15.20;99.90
75824;DHT22;64457;51.976;9.834;2022-11-15T15:10:20;15.00;99.50
75824;DHT22;64457;51.976;9.834;2022-11-15T15:12:48;15.20;99.80
75824;DHT22;64457;51.976;9.834;2022-11-15T15:15:19;15.20;99.80
75824;DHT22;64457;51.976;9.834;2022-11-15T15:17:50;15.30;99.40
75824;DHT22;64457;51.976;9.834;2022-11-15T15:20:18;15.40;99.30
75824;DHT22;64457;51.976;9.834;2022-11-15T15:22:46;15.30;99.40
75824;DHT22;64457;51.976;9.834;2022-11-15T15:25:20;15.20;99.50
75824;DHT22;64457;51.976;9.834;2022-11-15T15:27:51;15.20;99.50
75824;DHT22;64457;51.976;9.834;2022-11-15T15:30:20;15.10;99.70
75824;DHT22;64457;51.976;9.834;2022-11-15T15:32:48;14.80;99.90
75824;DHT22;64457;51.976;9.834;2022-11-15T15:35:16;14.50;99.90
75824;DHT22;64457;51.976;9.834;2022-11-15T15:37:45;14.60;99.90
75824;DHT22;64457;51.976;9.834;2022-11-15T15:40:16;14.40;99.90
75824;DHT22;64457;51.976;9.834;2022-11-15T15:42:51;14.40;99.90
75824;DHT22;64457;51.976;9.834;2022-11-15T15:45:19;14.10;99.90
75824;DHT22;64457;51.976;9.834;2022-11-15T15:47:46;13.90;99.90
75824;DHT22;64457;51.976;9.834;2022-11-15T15:50:21;14.00;99.90
75824;DHT22;64457;51.976;9.834;2022-11-15T15:52:51;14.00;99.90
75824;DHT22;64457;51.976;9.834;2022-11-15T15:55:21;13.70;99.90
75824;DHT22;64457;51.976;9.834;2022-11-15T15:57:50;13.60;99.90
75824;DHT22;64457;51.976;9.834;2022-11-15T16:00:19;13.50;99.90
75824;DHT22;64457;51.976;9.834;2022-11-15T16:02:49;13.40;99.90
75824;DHT22;64457;51.976;9.834;2022-11-15T16:05:17;13.60;99.90
75824;DHT22;64457;51.976;9.834;2022-11-15T16:07:44;13.50;99.90
75824;DHT22;64457;51.976;9.834;2022-11-15T16:10:18;13.60;99.90
75824;DHT22;64457;51.976;9.834;2022-11-15T16:13:00;13.30;99.90
75824;DHT22;64457;51.976;9.834;2022-11-15T16:15:30;13.20;99.90
75824;DHT22;64457;51.976;9.834;2022-11-15T16:17:59;13.10;99.90
75824;DHT22;64457;51.976;9.834;2022-11-15T16:20:34;13.20;99.90
75824;DHT22;64457;51.976;9.834;2022-11-15T16:23:05;13.00;99.90